createdAt,value
2018-05-15T00:00:48.735Z,0.00
2018-05-15T00:01:48.735Z,0.00
2018-05-15T00:02:48.736Z,0.00
2018-05-15T00:03:48.736Z,0.00
2018-05-15T00:04:48.737Z,0.00
2018-05-15T00:05:48.737Z,0.00
2018-05-15T00:06:48.737Z,0.00
2018-05-15T00:07:48.746Z,0.00
2018-05-15T00:08:48.739Z,0.00
2018-05-15T00:09:48.738Z,0.00
2018-05-15T00:10:48.737Z,0.00
2018-05-15T00:11:48.737Z,0.00
2018-05-15T00:12:48.735Z,0.00
2018-05-15T00:13:48.738Z,0.00
2018-05-15T00:14:48.743Z,0.00
2018-05-15T00:15:48.743Z,0.00
2018-05-15T00:16:48.735Z,0.00
2018-05-15T00:17:48.737Z,0.00
2018-05-15T00:18:48.737Z,0.00
2018-05-15T00:19:48.735Z,0.00
2018-05-15T00:20:48.735Z,0.00
2018-05-15T00:21:48.736Z,0.00
2018-05-15T00:22:48.735Z,0.00
2018-05-15T00:23:48.738Z,0.00
2018-05-15T00:24:48.736Z,0.00
2018-05-15T00:25:48.737Z,0.00
2018-05-15T00:26:48.733Z,0.00
2018-05-15T00:27:48.734Z,0.00
2018-05-15T00:28:48.732Z,0.00
2018-05-15T00:29:48.735Z,0.00
2018-05-15T00:30:48.737Z,0.00
2018-05-15T00:31:48.734Z,0.00
2018-05-15T00:32:48.733Z,0.00
2018-05-15T00:33:48.733Z,0.00
2018-05-15T00:34:48.733Z,0.00
2018-05-15T00:35:48.731Z,0.00
2018-05-15T00:36:48.733Z,0.00
2018-05-15T00:37:49.667Z,0.00
2018-05-15T00:38:49.609Z,0.00
2018-05-15T00:39:48.731Z,0.00
2018-05-15T00:40:48.736Z,0.00
2018-05-15T00:41:48.730Z,0.00
2018-05-15T00:42:48.731Z,0.00
2018-05-15T00:43:48.729Z,0.00
2018-05-15T00:44:48.809Z,0.00
2018-05-15T00:45:48.730Z,0.00
2018-05-15T00:46:48.729Z,0.00
2018-05-15T00:47:48.728Z,0.00
2018-05-15T00:48:48.727Z,0.00
2018-05-15T00:49:48.726Z,0.00
2018-05-15T00:50:48.727Z,0.00
2018-05-15T00:51:48.726Z,0.00
2018-05-15T00:52:48.726Z,0.00
2018-05-15T00:53:48.731Z,0.00
2018-05-15T00:54:48.726Z,0.00
2018-05-15T00:55:48.727Z,0.00
2018-05-15T00:56:48.738Z,0.00
2018-05-15T00:57:48.723Z,0.00
2018-05-15T00:58:48.724Z,0.00
2018-05-15T00:59:48.723Z,0.00
2018-05-15T01:00:48.744Z,0.00
2018-05-15T01:01:48.722Z,0.00
2018-05-15T01:02:48.723Z,0.00
2018-05-15T01:03:48.722Z,0.00
2018-05-15T01:04:48.721Z,0.00
2018-05-15T01:05:48.721Z,0.00
2018-05-15T01:06:48.787Z,0.00
2018-05-15T01:07:48.721Z,0.00
2018-05-15T01:08:48.721Z,0.00
2018-05-15T01:09:48.719Z,0.00
2018-05-15T01:10:48.718Z,0.00
2018-05-15T01:11:48.719Z,0.00
2018-05-15T01:12:48.722Z,0.00
2018-05-15T01:13:48.717Z,0.00
2018-05-15T01:14:48.721Z,0.00
2018-05-15T01:15:48.719Z,0.00
2018-05-15T01:16:48.718Z,0.00
2018-05-15T01:17:48.716Z,0.00
2018-05-15T01:18:48.715Z,0.00
2018-05-15T01:19:48.713Z,0.00
2018-05-15T01:20:48.714Z,0.00
2018-05-15T01:21:48.714Z,0.00
2018-05-15T01:22:48.712Z,0.00
2018-05-15T01:23:48.711Z,0.00
2018-05-15T01:24:48.716Z,0.00
2018-05-15T01:25:48.709Z,0.00
2018-05-15T01:26:48.711Z,0.00
2018-05-15T01:27:48.709Z,0.00
2018-05-15T01:28:48.710Z,0.00
2018-05-15T01:29:48.710Z,0.00
2018-05-15T01:30:48.708Z,0.00
2018-05-15T01:31:48.710Z,0.00
2018-05-15T01:32:48.707Z,0.00
2018-05-15T01:33:48.707Z,0.00
2018-05-15T01:34:48.705Z,0.00
2018-05-15T01:35:48.706Z,0.00
2018-05-15T01:36:48.708Z,0.00
2018-05-15T01:37:48.703Z,0.00
2018-05-15T01:38:48.703Z,0.00
2018-05-15T01:39:48.703Z,0.00
2018-05-15T01:40:48.702Z,0.00
2018-05-15T01:41:48.702Z,0.00
2018-05-15T01:42:48.701Z,0.00
2018-05-15T01:43:48.700Z,0.00
2018-05-15T01:44:48.700Z,0.00
2018-05-15T01:45:48.700Z,0.00
2018-05-15T01:46:48.699Z,0.00
2018-05-15T01:47:48.699Z,0.00
2018-05-15T01:48:48.697Z,0.00
2018-05-15T01:49:48.700Z,0.00
2018-05-15T01:50:48.695Z,0.00
2018-05-15T01:51:48.692Z,0.00
2018-05-15T01:52:48.692Z,0.00
2018-05-15T01:53:48.693Z,0.00
2018-05-15T01:54:48.694Z,0.00
2018-05-15T01:55:48.692Z,0.00
2018-05-15T01:56:48.692Z,0.00
2018-05-15T01:57:48.691Z,0.00
2018-05-15T01:58:48.690Z,0.00
2018-05-15T01:59:48.688Z,0.00
2018-05-15T02:00:49.622Z,0.00
2018-05-15T02:01:48.688Z,0.00
2018-05-15T02:02:48.685Z,0.00
2018-05-15T02:03:48.685Z,0.00
2018-05-15T02:04:48.685Z,0.00
2018-05-15T02:05:48.694Z,0.00
2018-05-15T02:06:48.688Z,0.00
2018-05-15T02:07:48.688Z,0.00
2018-05-15T02:08:48.683Z,0.00
2018-05-15T02:09:51.678Z,0.00
2018-05-15T02:10:48.679Z,0.00
2018-05-15T02:11:48.692Z,0.00
2018-05-15T02:12:48.686Z,0.00
2018-05-15T02:13:48.677Z,0.00
2018-05-15T02:14:48.677Z,0.00
2018-05-15T02:15:48.677Z,0.00
2018-05-15T02:16:48.685Z,0.00
2018-05-15T02:17:48.675Z,0.00
2018-05-15T02:18:48.676Z,0.00
2018-05-15T02:19:48.672Z,0.00
2018-05-15T02:20:48.672Z,0.00
2018-05-15T02:21:48.671Z,0.00
2018-05-15T02:22:48.670Z,0.00
2018-05-15T02:23:48.669Z,0.00
2018-05-15T02:24:48.669Z,0.00
2018-05-15T02:25:48.669Z,0.00
2018-05-15T02:26:48.667Z,0.00
2018-05-15T02:27:48.673Z,0.00
2018-05-15T02:28:48.663Z,0.00
2018-05-15T02:29:48.665Z,0.00
2018-05-15T02:30:48.664Z,0.00
2018-05-15T02:31:48.671Z,0.00
2018-05-15T02:32:48.661Z,0.00
2018-05-15T02:33:48.660Z,0.00
2018-05-15T02:34:48.660Z,0.00
2018-05-15T02:35:48.666Z,0.00
2018-05-15T02:36:48.657Z,0.00
2018-05-15T02:37:48.664Z,0.00
2018-05-15T02:38:48.656Z,0.00
2018-05-15T02:39:48.654Z,0.00
2018-05-15T02:40:48.655Z,0.00
2018-05-15T02:41:48.652Z,0.00
2018-05-15T02:42:48.651Z,0.00
2018-05-15T02:43:48.652Z,0.00
2018-05-15T02:44:48.650Z,0.00
2018-05-15T02:45:48.648Z,0.00
2018-05-15T02:46:48.649Z,0.00
2018-05-15T02:47:48.645Z,0.00
2018-05-15T02:48:48.645Z,0.00
2018-05-15T02:49:48.645Z,0.00
2018-05-15T02:50:48.647Z,0.00
2018-05-15T02:51:48.649Z,0.00
2018-05-15T02:52:48.641Z,0.00
2018-05-15T02:53:48.639Z,0.00
2018-05-15T02:54:48.640Z,0.00
2018-05-15T02:55:48.649Z,0.00
2018-05-15T02:56:48.638Z,0.00
2018-05-15T02:57:48.634Z,0.00
2018-05-15T02:58:48.634Z,0.00
2018-05-15T02:59:48.633Z,0.00
2018-05-15T03:00:48.631Z,0.00
2018-05-15T03:01:48.632Z,0.00
2018-05-15T03:02:48.632Z,4.00
2018-05-15T03:03:48.628Z,4.00
2018-05-15T03:04:48.626Z,0.00
2018-05-15T03:05:48.626Z,0.00
2018-05-15T03:06:48.630Z,4.00
2018-05-15T03:07:48.625Z,4.00
2018-05-15T03:08:48.656Z,0.00
2018-05-15T03:09:48.626Z,4.00
2018-05-15T03:10:48.618Z,4.00
2018-05-15T03:11:48.714Z,4.00
2018-05-15T03:12:48.614Z,8.00
2018-05-15T03:13:48.619Z,8.00
2018-05-15T03:14:48.614Z,8.00
2018-05-15T03:15:48.611Z,8.00
2018-05-15T03:16:48.611Z,12.00
2018-05-15T03:17:48.610Z,12.00
2018-05-15T03:18:48.609Z,12.00
2018-05-15T03:19:48.608Z,16.00
2018-05-15T03:20:48.607Z,16.00
2018-05-15T03:21:48.608Z,16.00
2018-05-15T03:22:48.605Z,16.00
2018-05-15T03:23:48.602Z,20.00
2018-05-15T03:24:48.601Z,20.00
2018-05-15T03:25:48.599Z,24.00
2018-05-15T03:26:48.599Z,24.00
2018-05-15T03:27:48.598Z,28.00
2018-05-15T03:28:48.596Z,32.00
2018-05-15T03:29:48.596Z,40.00
2018-05-15T03:30:48.595Z,40.00
2018-05-15T03:31:48.590Z,48.00
2018-05-15T03:32:48.590Z,48.00
2018-05-15T03:33:48.590Z,52.00
2018-05-15T03:34:48.591Z,60.00
2018-05-15T03:35:48.589Z,64.00
2018-05-15T03:36:48.588Z,68.00
2018-05-15T03:37:48.586Z,72.00
2018-05-15T03:38:48.585Z,80.00
2018-05-15T03:39:48.584Z,84.00
2018-05-15T03:40:48.581Z,88.00
2018-05-15T03:41:48.583Z,92.00
2018-05-15T03:42:48.580Z,96.00
2018-05-15T03:43:48.576Z,104.00
2018-05-15T03:44:48.573Z,108.00
2018-05-15T03:45:48.580Z,120.00
2018-05-15T03:46:48.576Z,124.00
2018-05-15T03:47:48.571Z,132.00
2018-05-15T03:48:48.572Z,140.00
2018-05-15T03:49:48.569Z,148.00
2018-05-15T03:50:48.568Z,156.00
2018-05-15T03:51:48.565Z,164.00
2018-05-15T03:52:48.565Z,172.00
2018-05-15T03:53:48.565Z,180.00
2018-05-15T03:54:48.563Z,188.00
2018-05-15T03:55:48.565Z,196.00
2018-05-15T03:56:48.558Z,204.00
2018-05-15T03:57:48.558Z,216.00
2018-05-15T03:58:48.557Z,220.00
2018-05-15T03:59:48.578Z,228.00
2018-05-15T04:00:48.555Z,240.00
2018-05-15T04:01:48.551Z,248.00
2018-05-15T04:02:48.553Z,256.00
2018-05-15T04:03:48.551Z,268.00
2018-05-15T04:04:48.548Z,276.00
2018-05-15T04:05:48.547Z,280.00
2018-05-15T04:06:48.546Z,296.00
2018-05-15T04:07:48.548Z,300.00
2018-05-15T04:08:48.542Z,312.00
2018-05-15T04:09:48.541Z,324.00
2018-05-15T04:10:48.598Z,328.00
2018-05-15T04:11:48.539Z,340.00
2018-05-15T04:12:48.537Z,344.00
2018-05-15T04:13:48.536Z,352.00
2018-05-15T04:14:48.536Z,364.00
2018-05-15T04:15:48.533Z,372.00
2018-05-15T04:16:48.532Z,376.00
2018-05-15T04:17:48.530Z,384.00
2018-05-15T04:18:48.529Z,392.00
2018-05-15T04:19:48.529Z,400.00
2018-05-15T04:20:48.526Z,408.00
2018-05-15T04:21:48.523Z,416.00
2018-05-15T04:22:48.525Z,424.00
2018-05-15T04:23:48.525Z,432.00
2018-05-15T04:24:48.519Z,440.00
2018-05-15T04:25:48.523Z,448.00
2018-05-15T04:26:48.519Z,452.00
2018-05-15T04:27:48.516Z,468.00
2018-05-15T04:28:48.515Z,476.00
2018-05-15T04:29:48.515Z,480.00
2018-05-15T04:30:48.545Z,488.00
2018-05-15T04:31:48.548Z,500.00
2018-05-15T04:32:48.561Z,508.00
2018-05-15T04:33:48.529Z,516.00
2018-05-15T04:34:48.514Z,528.00
2018-05-15T04:35:48.764Z,536.00
2018-05-15T04:39:06.909Z,564.00
2018-05-15T04:39:52.629Z,572.00
2018-05-15T04:40:52.589Z,580.00
2018-05-15T04:41:52.572Z,588.00
2018-05-15T04:42:52.572Z,596.00
2018-05-15T04:43:52.881Z,604.00
2018-05-15T04:44:52.586Z,612.00
2018-05-15T04:45:52.945Z,620.00
2018-05-15T04:46:52.809Z,628.00
2018-05-15T04:47:52.713Z,636.00
2018-05-15T04:48:52.672Z,644.00
2018-05-15T04:49:52.841Z,652.00
2018-05-15T04:50:52.660Z,656.00
2018-05-15T04:51:52.929Z,664.00
2018-05-15T04:54:20.002Z,684.00
2018-05-15T04:55:30.096Z,688.00
2018-05-15T04:57:15.317Z,700.00
2018-05-15T04:58:15.293Z,708.00
2018-05-15T05:00:13.734Z,716.00
2018-05-15T05:01:11.755Z,724.00
2018-05-15T05:02:11.777Z,736.00
2018-05-15T05:03:22.269Z,748.00
2018-05-15T05:05:06.165Z,764.00
2018-05-15T05:06:06.112Z,772.00
2018-05-15T05:08:02.058Z,796.00
2018-05-15T05:09:02.090Z,804.00
2018-05-15T05:10:02.048Z,804.00
2018-05-15T05:11:02.055Z,812.00
2018-05-15T05:12:02.012Z,816.00
2018-05-15T05:13:02.012Z,824.00
2018-05-15T05:14:02.040Z,832.00
2018-05-15T05:15:02.029Z,828.00
2018-05-15T05:16:01.993Z,804.00
2018-05-15T05:17:02.042Z,776.00
2018-05-15T05:18:01.996Z,768.00
2018-05-15T05:19:02.025Z,808.00
2018-05-15T05:20:02.004Z,840.00
2018-05-15T05:21:02.106Z,844.00
2018-05-15T05:22:01.989Z,860.00
2018-05-15T05:23:01.986Z,872.00
2018-05-15T05:24:02.012Z,880.00
2018-05-15T05:25:02.028Z,884.00
2018-05-15T05:26:01.990Z,904.00
2018-05-15T05:27:02.115Z,916.00
2018-05-15T05:28:02.031Z,912.00
2018-05-15T05:29:02.017Z,932.00
2018-05-15T05:30:02.075Z,984.00
2018-05-15T05:31:02.034Z,1028.00
2018-05-15T05:32:01.987Z,1040.00
2018-05-15T05:33:01.993Z,1020.00
2018-05-15T05:34:03.542Z,1004.00
2018-05-15T05:35:10.649Z,996.00
2018-05-15T05:36:56.396Z,1040.00
2018-05-15T05:39:34.170Z,1144.00
2018-05-15T05:40:53.568Z,1180.00
2018-05-15T05:42:26.621Z,1244.00
2018-05-15T05:43:36.509Z,1272.00
2018-05-15T05:45:20.898Z,1336.00
2018-05-15T05:46:20.948Z,1388.00
2018-05-15T05:48:49.295Z,1356.00
2018-05-15T05:49:49.244Z,1336.00
2018-05-15T05:50:49.266Z,1396.00
2018-05-15T05:51:49.324Z,1420.00
2018-05-15T05:52:49.232Z,1468.00
2018-05-15T05:53:49.285Z,1488.00
2018-05-15T05:54:49.218Z,1472.00
2018-05-15T05:55:49.220Z,1520.00
2018-05-15T05:56:49.220Z,1588.00
2018-05-15T05:57:49.219Z,1596.00
2018-05-15T05:58:49.219Z,1612.00
2018-05-15T05:59:49.222Z,1624.00
2018-05-15T06:00:49.220Z,1676.00
2018-05-15T06:01:49.225Z,1696.00
2018-05-15T06:02:49.224Z,1860.00
2018-05-15T06:03:49.224Z,2124.00
2018-05-15T06:04:49.226Z,2500.00
2018-05-15T06:05:49.227Z,2684.00
2018-05-15T06:06:49.275Z,2688.00
2018-05-15T06:07:49.229Z,2464.00
2018-05-15T06:08:49.230Z,2748.00
2018-05-15T06:09:49.232Z,3212.00
2018-05-15T06:10:49.232Z,3236.00
2018-05-15T06:11:49.234Z,3064.00
2018-05-15T06:12:49.238Z,3204.00
2018-05-15T06:13:49.238Z,3020.00
2018-05-15T06:14:49.239Z,2940.00
2018-05-15T06:15:49.247Z,3140.00
2018-05-15T06:16:49.241Z,3200.00
2018-05-15T06:17:49.244Z,3296.00
2018-05-15T06:18:49.248Z,3376.00
2018-05-15T06:19:49.252Z,2660.00
2018-05-15T06:20:49.327Z,2852.00
2018-05-15T06:21:49.257Z,2828.00
2018-05-15T06:22:49.261Z,2832.00
2018-05-15T06:23:49.260Z,2664.00
2018-05-15T06:24:49.266Z,2928.00
2018-05-15T06:25:49.271Z,3252.00
2018-05-15T06:26:49.274Z,3100.00
2018-05-15T06:27:49.295Z,3320.00
2018-05-15T06:28:49.277Z,3336.00
2018-05-15T06:29:49.327Z,3624.00
2018-05-15T06:30:49.332Z,3812.00
2018-05-15T06:31:49.294Z,3352.00
2018-05-15T06:32:49.298Z,3248.00
2018-05-15T06:33:49.327Z,3048.00
2018-05-15T06:34:49.302Z,3112.00
2018-05-15T06:35:49.304Z,3676.00
2018-05-15T06:36:49.315Z,3396.00
2018-05-15T06:37:49.314Z,3356.00
2018-05-15T06:38:49.360Z,3188.00
2018-05-15T06:39:49.340Z,3648.00
2018-05-15T06:40:49.376Z,4244.00
2018-05-15T06:41:49.344Z,4188.00
2018-05-15T06:42:49.347Z,4188.00
2018-05-15T06:45:23.595Z,4244.00
2018-05-15T06:46:23.512Z,4148.00
2018-05-15T06:47:23.493Z,4228.00
2018-05-15T06:48:23.550Z,4808.00
2018-05-15T06:49:23.512Z,4944.00
2018-05-15T06:50:23.487Z,5200.00
2018-05-15T06:51:23.505Z,4996.00
2018-05-15T06:52:24.004Z,4816.00
2018-05-15T06:53:23.505Z,3348.00
2018-05-15T06:54:23.508Z,3372.00
2018-05-15T06:55:23.521Z,2752.00
2018-05-15T06:56:23.517Z,2668.00
2018-05-15T06:57:23.521Z,5476.00
2018-05-15T06:58:23.531Z,5732.00
2018-05-15T06:59:23.538Z,6008.00
2018-05-15T07:00:23.539Z,6076.00
2018-05-15T07:01:23.541Z,6096.00
2018-05-15T07:02:23.547Z,6160.00
2018-05-15T07:03:23.580Z,6016.00
2018-05-15T07:04:23.560Z,6080.00
2018-05-15T07:05:23.566Z,6192.00
2018-05-15T07:06:23.577Z,6292.00
2018-05-15T07:07:23.581Z,5612.00
2018-05-15T07:08:28.559Z,5200.00
2018-05-15T07:09:23.601Z,5028.00
2018-05-15T07:10:23.829Z,5136.00
2018-05-15T07:11:23.673Z,5396.00
2018-05-15T07:12:23.749Z,6200.00
2018-05-15T07:13:24.607Z,6260.00
2018-05-15T07:14:23.735Z,6040.00
2018-05-15T07:16:55.745Z,5532.00
2018-05-15T07:17:55.720Z,6428.00
2018-05-15T07:18:55.732Z,6660.00
2018-05-15T07:19:55.720Z,6712.00
2018-05-15T07:20:55.729Z,6432.00
2018-05-15T07:21:55.769Z,5208.00
2018-05-15T07:22:55.872Z,2976.00
2018-05-15T07:23:55.826Z,4200.00
2018-05-15T07:24:55.769Z,4312.00
2018-05-15T07:25:55.794Z,4736.00
2018-05-15T07:26:55.793Z,5368.00
2018-05-15T07:27:55.809Z,5508.00
2018-05-15T07:28:55.795Z,5952.00
2018-05-15T07:29:55.813Z,6208.00
2018-05-15T07:30:55.821Z,6424.00
2018-05-15T07:31:55.812Z,6604.00
2018-05-15T07:32:55.812Z,6876.00
2018-05-15T07:33:55.842Z,6776.00
2018-05-15T07:34:55.840Z,5976.00
2018-05-15T07:35:55.846Z,5796.00
2018-05-15T07:36:55.881Z,6684.00
2018-05-15T07:37:55.849Z,6952.00
2018-05-15T07:38:55.868Z,7136.00
2018-05-15T07:39:55.876Z,7092.00
2018-05-15T07:40:55.896Z,7112.00
2018-05-15T07:41:55.894Z,6580.00
2018-05-15T07:42:56.001Z,6336.00
2018-05-15T07:43:55.968Z,4588.00
2018-05-15T07:44:55.910Z,5528.00
2018-05-15T07:45:55.938Z,7096.00
2018-05-15T07:46:55.931Z,8144.00
2018-05-15T07:47:55.934Z,8288.00
2018-05-15T07:48:55.940Z,8740.00
2018-05-15T07:49:55.965Z,8724.00
2018-05-15T07:50:55.969Z,8892.00
2018-05-15T07:51:56.005Z,8796.00
2018-05-15T07:52:56.000Z,8852.00
2018-05-15T07:53:55.981Z,8800.00
2018-05-15T07:54:55.987Z,4952.00
2018-05-15T07:55:55.997Z,7856.00
2018-05-15T07:56:56.021Z,5132.00
2018-05-15T07:57:56.026Z,4876.00
2018-05-15T07:58:56.046Z,3528.00
2018-05-15T07:59:56.028Z,7448.00
2018-05-15T08:00:56.036Z,7972.00
2018-05-15T08:01:56.070Z,8192.00
2018-05-15T08:02:56.058Z,5448.00
2018-05-15T08:03:56.092Z,5840.00
2018-05-15T08:04:56.090Z,5184.00
2018-05-15T08:05:56.099Z,4860.00
2018-05-15T08:06:56.284Z,5276.00
2018-05-15T08:07:56.119Z,4032.00
2018-05-15T08:08:56.148Z,7296.00
2018-05-15T08:09:56.108Z,8076.00
2018-05-15T08:10:56.139Z,8892.00
2018-05-15T08:11:56.185Z,9420.00
2018-05-15T08:12:56.149Z,8696.00
2018-05-15T08:13:57.720Z,8764.00
2018-05-15T08:14:56.151Z,8196.00
2018-05-15T08:15:56.156Z,7200.00
2018-05-15T08:16:56.169Z,3800.00
2018-05-15T08:17:56.253Z,3064.00
2018-05-15T08:18:56.183Z,3080.00
2018-05-15T08:19:56.232Z,3084.00
2018-05-15T08:20:56.191Z,2996.00
2018-05-15T08:21:56.199Z,2800.00
2018-05-15T08:22:56.265Z,2652.00
2018-05-15T08:23:56.227Z,2704.00
2018-05-15T08:24:56.234Z,2652.00
2018-05-15T08:25:56.261Z,2560.00
2018-05-15T08:26:56.237Z,2412.00
2018-05-15T08:27:56.243Z,2184.00
2018-05-15T08:28:56.250Z,2008.00
2018-05-15T08:29:56.260Z,1960.00
2018-05-15T08:30:56.330Z,1892.00
2018-05-15T08:31:56.303Z,1884.00
2018-05-15T08:32:56.278Z,1844.00
2018-05-15T08:33:56.281Z,1800.00
2018-05-15T08:34:56.318Z,1860.00
2018-05-15T08:35:56.294Z,1980.00
2018-05-15T08:36:56.302Z,2112.00
2018-05-15T08:37:56.307Z,2092.00
2018-05-15T08:38:56.315Z,1924.00
2018-05-15T08:39:56.350Z,1868.00
2018-05-15T08:40:56.335Z,1824.00
2018-05-15T08:41:56.332Z,1976.00
2018-05-15T08:42:58.212Z,2352.00
2018-05-15T08:43:56.349Z,2824.00
2018-05-15T08:44:56.357Z,3304.00
2018-05-15T08:45:56.350Z,3992.00
2018-05-15T08:46:56.359Z,4756.00
2018-05-15T08:47:56.365Z,4460.00
2018-05-15T08:48:56.370Z,5140.00
2018-05-15T08:49:56.403Z,5812.00
2018-05-15T08:50:56.408Z,7040.00
2018-05-15T08:51:56.389Z,5724.00
2018-05-15T08:52:56.471Z,6640.00
2018-05-15T08:53:56.393Z,6292.00
2018-05-15T08:54:56.403Z,6088.00
2018-05-15T08:55:56.416Z,6216.00
2018-05-15T08:56:56.417Z,6160.00
2018-05-15T08:57:56.420Z,4872.00
2018-05-15T08:58:56.430Z,4784.00
2018-05-15T08:59:56.430Z,4244.00
2018-05-15T09:00:56.436Z,3176.00
2018-05-15T09:01:56.446Z,2672.00
2018-05-15T09:02:56.458Z,2504.00
2018-05-15T09:03:56.458Z,2312.00
2018-05-15T09:04:56.462Z,2152.00
2018-05-15T09:05:56.470Z,2232.00
2018-05-15T09:06:56.476Z,2388.00
2018-05-15T09:07:56.482Z,2380.00
2018-05-15T09:08:56.487Z,2496.00
2018-05-15T09:09:56.512Z,2808.00
2018-05-15T09:10:56.496Z,3348.00
2018-05-15T09:11:56.503Z,3656.00
2018-05-15T09:12:56.505Z,3656.00
2018-05-15T09:13:56.515Z,3384.00
2018-05-15T09:14:56.524Z,3236.00
2018-05-15T09:15:56.525Z,3304.00
2018-05-15T09:16:56.530Z,3208.00
2018-05-15T09:17:56.538Z,3044.00
2018-05-15T09:18:56.561Z,3036.00
2018-05-15T09:19:56.658Z,3456.00
2018-05-15T09:20:56.593Z,3940.00
2018-05-15T09:21:56.562Z,4160.00
2018-05-15T09:22:56.564Z,4256.00
2018-05-15T09:23:59.211Z,4896.00
2018-05-15T09:24:56.575Z,4852.00
2018-05-15T09:25:56.591Z,4936.00
2018-05-15T09:26:56.589Z,5052.00
2018-05-15T09:27:56.594Z,4872.00
2018-05-15T09:28:56.601Z,4436.00
2018-05-15T09:29:56.604Z,3952.00
2018-05-15T09:30:56.615Z,3544.00
2018-05-15T09:31:56.616Z,3512.00
2018-05-15T09:32:56.620Z,3544.00
2018-05-15T09:33:56.626Z,3744.00
2018-05-15T09:34:56.632Z,3524.00
2018-05-15T09:35:56.637Z,3228.00
2018-05-15T09:36:56.642Z,3264.00
2018-05-15T09:37:56.651Z,3484.00
2018-05-15T09:38:56.654Z,3628.00
2018-05-15T09:39:56.661Z,4132.00
2018-05-15T09:40:56.664Z,3848.00
2018-05-15T09:41:56.671Z,3780.00
2018-05-15T09:42:56.677Z,3684.00
2018-05-15T09:43:56.682Z,3808.00
2018-05-15T09:44:56.687Z,3644.00
2018-05-15T09:45:56.697Z,3420.00
2018-05-15T09:46:56.753Z,3204.00
2018-05-15T09:47:56.705Z,3132.00
2018-05-15T09:48:56.709Z,4460.00
2018-05-15T09:49:56.715Z,3180.00
2018-05-15T09:50:56.720Z,3072.00
2018-05-15T09:51:56.726Z,3592.00
2018-05-15T09:52:56.737Z,3604.00
2018-05-15T09:53:56.737Z,3528.00
2018-05-15T09:54:56.744Z,3532.00
2018-05-15T09:55:56.752Z,4568.00
2018-05-15T09:56:56.760Z,5212.00
2018-05-15T09:57:56.761Z,4340.00
2018-05-15T09:58:56.767Z,4992.00
2018-05-15T09:59:56.773Z,3920.00
2018-05-15T10:00:56.778Z,3860.00
2018-05-15T10:01:56.787Z,3604.00
2018-05-15T10:02:56.790Z,3732.00
2018-05-15T10:03:56.796Z,4764.00
2018-05-15T10:04:56.801Z,3220.00
2018-05-15T10:05:56.808Z,2788.00
2018-05-15T10:06:56.812Z,2712.00
2018-05-15T10:07:56.900Z,2328.00
2018-05-15T10:08:56.823Z,2056.00
2018-05-15T10:09:56.830Z,2032.00
2018-05-15T10:10:56.836Z,2096.00
2018-05-15T10:11:56.840Z,2620.00
2018-05-15T10:12:56.848Z,2468.00
2018-05-15T10:13:56.859Z,2084.00
2018-05-15T10:14:56.859Z,1988.00
2018-05-15T10:15:56.864Z,2244.00
2018-05-15T10:16:56.867Z,2352.00
2018-05-15T10:17:56.894Z,2372.00
2018-05-15T10:18:56.880Z,2820.00
2018-05-15T10:19:56.891Z,3952.00
2018-05-15T10:20:56.891Z,4496.00
2018-05-15T10:21:56.898Z,5032.00
2018-05-15T10:22:56.903Z,6040.00
2018-05-15T10:23:56.907Z,4688.00
2018-05-15T10:24:56.913Z,5484.00
2018-05-15T10:25:56.918Z,4528.00
2018-05-15T10:26:56.924Z,4376.00
2018-05-15T10:27:56.929Z,4340.00
2018-05-15T10:28:56.937Z,3528.00
2018-05-15T10:29:56.962Z,3432.00
2018-05-15T10:30:56.946Z,3344.00
2018-05-15T10:31:56.952Z,3804.00
2018-05-15T10:32:56.959Z,4048.00
2018-05-15T10:33:56.962Z,5904.00
2018-05-15T10:34:56.966Z,5240.00
2018-05-15T10:35:56.973Z,5292.00
2018-05-15T10:36:56.979Z,5740.00
2018-05-15T10:37:56.985Z,5368.00
2018-05-15T10:38:56.991Z,4960.00
2018-05-15T10:39:56.996Z,5096.00
2018-05-15T10:40:57.002Z,5196.00
2018-05-15T10:41:57.008Z,5256.00
2018-05-15T10:42:57.015Z,4864.00
2018-05-15T10:43:57.072Z,3896.00
2018-05-15T10:44:57.034Z,3160.00
2018-05-15T10:45:57.033Z,2784.00
2018-05-15T10:46:57.037Z,2436.00
2018-05-15T10:47:57.046Z,2592.00
2018-05-15T10:48:57.053Z,2936.00
2018-05-15T10:49:57.058Z,2888.00
2018-05-15T10:50:57.094Z,2940.00
2018-05-15T10:51:57.149Z,2952.00
2018-05-15T10:52:57.073Z,3048.00
2018-05-15T10:53:57.146Z,2956.00
2018-05-15T10:54:57.108Z,3376.00
2018-05-15T10:55:57.093Z,2312.00
2018-05-15T10:56:57.097Z,2196.00
2018-05-15T10:57:57.104Z,1972.00
2018-05-15T10:58:57.111Z,1896.00
2018-05-15T10:59:57.116Z,1948.00
2018-05-15T11:00:57.141Z,3168.00
2018-05-15T11:01:57.130Z,3236.00
2018-05-15T11:02:57.140Z,3308.00
2018-05-15T11:03:57.140Z,3468.00
2018-05-15T11:04:57.146Z,3440.00
2018-05-15T11:05:57.254Z,3468.00
2018-05-15T11:06:57.156Z,3400.00
2018-05-15T11:07:57.164Z,3548.00
2018-05-15T11:08:57.169Z,3456.00
2018-05-15T11:09:57.178Z,2964.00
2018-05-15T11:10:57.183Z,2340.00
2018-05-15T11:11:57.191Z,1872.00
2018-05-15T11:12:57.193Z,1796.00
2018-05-15T11:13:57.200Z,1884.00
2018-05-15T11:14:57.205Z,2440.00
2018-05-15T11:15:57.212Z,2512.00
2018-05-15T11:16:57.226Z,2008.00
2018-05-15T11:17:57.222Z,1840.00
2018-05-15T11:18:57.230Z,1800.00
2018-05-15T11:19:57.237Z,2048.00
2018-05-15T11:20:57.241Z,2688.00
2018-05-15T11:21:57.246Z,3228.00
2018-05-15T11:22:57.285Z,4212.00
2018-05-15T11:23:57.275Z,4208.00
2018-05-15T11:24:57.264Z,3736.00
2018-05-15T11:25:57.270Z,3692.00
2018-05-15T11:26:57.281Z,2892.00
2018-05-15T11:27:57.281Z,3040.00
2018-05-15T11:28:57.287Z,4060.00
2018-05-15T11:29:57.294Z,4108.00
2018-05-15T11:31:00.243Z,3724.00
2018-05-15T11:31:57.305Z,3432.00
2018-05-15T11:32:57.310Z,2576.00
2018-05-15T11:33:57.317Z,2764.00
2018-05-15T11:34:57.324Z,4132.00
2018-05-15T11:35:57.378Z,3548.00
2018-05-15T11:36:57.332Z,3428.00
2018-05-15T11:37:57.340Z,2700.00
2018-05-15T11:38:57.347Z,2664.00
2018-05-15T11:39:57.355Z,3828.00
2018-05-15T11:40:57.360Z,2544.00
2018-05-15T11:41:57.399Z,2464.00
2018-05-15T11:42:57.377Z,2388.00
2018-05-15T11:43:57.402Z,2500.00
2018-05-15T11:44:57.386Z,2548.00
2018-05-15T11:45:57.392Z,2420.00
2018-05-15T11:46:57.402Z,1892.00
2018-05-15T11:47:57.534Z,1520.00
2018-05-15T11:48:57.919Z,1256.00
2018-05-15T11:49:57.995Z,1096.00
2018-05-15T11:50:58.002Z,1044.00
2018-05-15T11:51:58.064Z,1028.00
2018-05-15T11:52:58.160Z,1096.00
2018-05-15T11:53:57.521Z,1084.00
2018-05-15T11:54:57.448Z,1056.00
2018-05-15T11:55:57.520Z,1064.00
2018-05-15T11:56:57.465Z,1080.00
2018-05-15T11:57:57.466Z,1136.00
2018-05-15T11:58:57.632Z,1232.00
2018-05-15T12:00:00.343Z,1276.00
2018-05-15T12:00:57.479Z,1312.00
2018-05-15T12:01:57.484Z,1408.00
2018-05-15T12:02:57.490Z,1548.00
2018-05-15T12:03:57.572Z,1744.00
2018-05-15T12:04:57.501Z,2088.00
2018-05-15T12:05:57.507Z,2236.00
2018-05-15T12:06:57.513Z,2336.00
2018-05-15T12:07:57.597Z,2192.00
2018-05-15T12:08:57.583Z,2144.00
2018-05-15T12:09:57.530Z,2276.00
2018-05-15T12:10:57.533Z,2424.00
2018-05-15T12:11:57.540Z,2644.00
2018-05-15T12:12:57.698Z,2776.00
2018-05-15T12:13:57.550Z,2640.00
2018-05-15T12:14:57.662Z,2472.00
2018-05-15T12:15:57.566Z,2328.00
2018-05-15T12:16:57.570Z,2284.00
2018-05-15T12:17:57.576Z,2292.00
2018-05-15T12:18:57.579Z,2208.00
2018-05-15T12:19:57.584Z,2176.00
2018-05-15T12:20:57.631Z,2348.00
2018-05-15T12:21:57.594Z,2872.00
2018-05-15T12:22:57.601Z,2844.00
2018-05-15T12:23:57.607Z,2948.00
2018-05-15T12:24:57.610Z,2860.00
2018-05-15T12:25:57.688Z,2872.00
2018-05-15T12:26:57.622Z,3180.00
2018-05-15T12:27:57.634Z,4284.00
2018-05-15T12:28:57.635Z,3616.00
2018-05-15T12:29:57.721Z,3548.00
2018-05-15T12:30:57.645Z,3136.00
2018-05-15T12:31:57.656Z,3172.00
2018-05-15T12:32:57.656Z,3072.00
2018-05-15T12:33:57.662Z,2960.00
2018-05-15T12:34:57.669Z,2960.00
2018-05-15T12:35:57.676Z,3064.00
2018-05-15T12:36:57.678Z,2996.00
2018-05-15T12:37:57.687Z,2840.00
2018-05-15T12:38:57.691Z,2652.00
2018-05-15T12:39:57.700Z,2520.00
2018-05-15T12:40:57.701Z,2452.00
2018-05-15T12:41:57.861Z,2412.00
2018-05-15T12:42:57.716Z,2348.00
2018-05-15T12:43:57.719Z,2332.00
2018-05-15T12:44:57.724Z,2400.00